Time;durP1;ratioP1;P1;durP2;ratioP2;P2;SDS_P1;SDS_P2;PMS_P1;PMS_P2;Temp;Humidity;BMP_temperature;BMP_pressure;BME280_temperature;BME280_humidity;BME280_pressure;Samples;Min_cycle;Max_cycle;Signal;HPM_P1;HPM_P2
2022/08/14 00:00:49;;;;;;;25.27;16.75;;;;;;;16.92;66.76;100461.69;5039422;28;20052;-83
2022/08/14 00:03:23;;;;;;;23.83;15.90;;;;;;;16.83;66.88;100452.25;5026881;28;20048;-82
2022/08/14 00:05:50;;;;;;;24.15;16.77;;;;;;;16.65;66.86;100422.91;5043326;28;20045;-84
2022/08/14 00:08:16;;;;;;;20.05;14.95;;;;;;;16.55;67.08;100409.13;5051634;28;20038;-82
2022/08/14 00:10:42;;;;;;;26.60;16.17;;;;;;;16.83;66.94;100462.78;5034523;28;20044;-81
2022/08/14 00:13:09;;;;;;;23.50;15.52;;;;;;;16.73;66.87;100443.72;5035960;28;20509;-80
2022/08/14 00:15:43;;;;;;;24.65;15.40;;;;;;;16.77;67.04;100453.28;5049788;28;20128;-83
2022/08/14 00:18:12;;;;;;;25.50;15.82;;;;;;;16.79;66.94;100461.09;5045894;28;20144;-83
2022/08/14 00:20:41;;;;;;;24.23;15.85;;;;;;;16.42;66.92;100411.19;5029097;28;20137;-84
2022/08/14 00:23:09;;;;;;;29.48;16.60;;;;;;;16.63;67.07;100445.72;5044283;28;20056;-82
2022/08/14 00:25:35;;;;;;;27.75;16.67;;;;;;;16.39;67.18;100410.41;5027250;28;20134;-82
2022/08/14 00:28:03;;;;;;;25.00;16.55;;;;;;;16.48;67.36;100428.56;5045423;28;20492;-82
2022/08/14 00:30:29;;;;;;;26.27;15.80;;;;;;;16.45;67.08;100431.25;5011431;28;20048;-85
2022/08/14 00:32:55;;;;;;;25.30;15.93;;;;;;;16.38;67.17;100417.41;5045980;28;20139;-82
2022/08/14 00:35:22;;;;;;;27.20;17.73;;;;;;;16.42;66.94;100426.09;5028740;28;20041;-79
2022/08/14 00:37:48;;;;;;;26.90;16.77;;;;;;;16.45;67.13;100444.38;5057095;28;20041;-81
2022/08/14 00:40:17;;;;;;;25.35;16.20;;;;;;;16.46;67.13;100447.88;5055300;28;20560;-83
2022/08/14 00:42:43;;;;;;;24.45;15.38;;;;;;;16.10;67.32;100399.66;5053466;28;20525;-83
2022/08/14 00:45:12;;;;;;;21.90;15.40;;;;;;;16.30;67.53;100436.84;5032006;28;20124;-82
2022/08/14 00:47:41;;;;;;;23.63;17.50;;;;;;;16.41;67.53;100448.00;5014678;28;20045;-82
2022/08/14 00:50:09;;;;;;;22.83;16.60;;;;;;;16.20;67.60;100415.19;5014868;28;20044;-81
2022/08/14 00:52:37;;;;;;;22.92;17.10;;;;;;;16.33;67.54;100435.00;5045262;28;20542;-84
2022/08/14 00:55:06;;;;;;;21.55;16.80;;;;;;;16.04;67.78;100398.91;5048190;28;20037;-81
2022/08/14 00:57:35;;;;;;;23.05;16.92;;;;;;;16.13;67.91;100414.47;5016315;28;20052;-81
2022/08/14 01:00:14;;;;;;;22.48;16.55;;;;;;;16.11;67.81;100422.38;5048390;28;20076;-81
2022/08/14 01:02:42;;;;;;;23.77;16.95;;;;;;;16.25;67.84;100444.84;5020613;28;20048;-81
2022/08/14 01:05:22;;;;;;;22.80;16.35;;;;;;;16.19;67.97;100429.22;5047982;28;20147;-84
2022/08/14 01:07:56;;;;;;;22.85;16.98;;;;;;;15.96;67.96;100392.09;5036229;28;20144;-81
2022/08/14 01:10:49;;;;;;;29.02;17.15;;;;;;;15.96;67.74;100401.72;5042759;28;20079;-79
2022/08/14 01:13:15;;;;;;;25.98;17.77;;;;;;;16.26;68.01;100460.56;5046941;28;20041;-81
2022/08/14 01:15:46;;;;;;;24.30;17.55;;;;;;;16.21;67.94;100457.19;5030151;28;20079;-83
2022/08/14 01:21:10;;;;;;;27.65;18.45;;;;;;;16.15;68.02;100453.81;5043734;28;20056;-82
2022/08/14 01:23:40;;;;;;;29.75;19.08;;;;;;;15.79;68.21;100402.91;5030858;28;20136;-80
2022/08/14 01:26:11;;;;;;;22.75;16.23;;;;;;;16.12;68.09;100460.00;5043651;28;20055;-82
2022/08/14 01:28:38;;;;;;;31.20;17.83;;;;;;;16.13;68.43;100463.47;5043799;28;20037;-82
2022/08/14 01:31:14;;;;;;;29.08;17.80;;;;;;;15.90;68.50;100422.81;5013723;28;20471;-82
2022/08/14 01:33:45;;;;;;;23.90;17.15;;;;;;;16.09;68.30;100468.81;5024302;28;20037;-84
2022/08/14 01:36:11;;;;;;;27.70;17.45;;;;;;;15.69;68.79;100393.50;5029241;28;20119;-82
2022/08/14 01:38:40;;;;;;;24.85;16.88;;;;;;;15.98;68.56;100446.31;5026744;28;20508;-81
2022/08/14 01:41:11;;;;;;;27.05;16.50;;;;;;;15.94;68.46;100429.75;5025884;28;20044;-84
2022/08/14 01:44:00;;;;;;;33.83;19.50;;;;;;;16.08;68.82;100472.34;5027866;28;20106;-81
2022/08/14 01:46:32;;;;;;;29.83;19.10;;;;;;;16.06;68.58;100460.13;5043866;28;20299;-81
2022/08/14 01:48:59;;;;;;;29.50;17.55;;;;;;;15.84;68.70;100433.44;5009807;28;20045;-82
2022/08/14 01:51:27;;;;;;;25.27;16.95;;;;;;;15.94;68.82;100451.63;5013963;28;20523;-83
2022/08/14 01:53:57;;;;;;;28.05;18.02;;;;;;;16.02;68.59;100471.56;5044183;28;20048;-82
2022/08/14 01:56:37;;;;;;;25.10;15.98;;;;;;;15.81;68.60;100439.59;5013732;28;20029;-82
2022/08/14 01:59:16;;;;;;;33.55;18.15;;;;;;;16.00;68.46;100470.78;5025330;28;20147;-80
2022/08/14 02:01:42;;;;;;;25.33;16.85;;;;;;;16.00;68.29;100473.41;5025235;28;20412;-84
2022/08/14 02:04:09;;;;;;;24.52;17.17;;;;;;;15.74;68.36;100441.50;5025635;28;20047;-82
2022/08/14 02:06:36;;;;;;;23.45;18.55;;;;;;;15.51;68.31;100398.22;5031368;28;20041;-82
2022/08/14 02:09:07;;;;;;;27.90;18.08;;;;;;;15.90;68.36;100464.81;5013816;28;20083;-82
2022/08/14 02:11:35;;;;;;;28.88;19.50;;;;;;;16.01;68.36;100488.22;5026339;28;20536;-81
2022/08/14 02:14:07;;;;;;;30.05;19.27;;;;;;;15.77;68.33;100443.22;5048504;28;20049;-82
2022/08/14 02:16:45;;;;;;;31.83;19.63;;;;;;;16.01;68.40;100483.84;5017499;28;20115;-80
2022/08/14 02:19:14;;;;;;;30.15;19.83;;;;;;;15.69;68.66;100434.63;5040118;28;20049;-79
2022/08/14 02:21:42;;;;;;;26.95;18.48;;;;;;;15.66;68.50;100446.88;5032410;28;20041;-82
2022/08/14 02:24:10;;;;;;;31.73;18.30;;;;;;;15.89;68.66;100476.25;5048231;28;20040;-81
2022/08/14 02:26:38;;;;;;;28.10;19.55;;;;;;;16.00;68.47;100505.75;5047247;28;20017;-81
2022/08/14 02:29:12;;;;;;;25.10;18.83;;;;;;;16.01;68.69;100499.59;5033449;28;20052;-80
2022/08/14 02:31:40;;;;;;;33.88;23.17;;;;;;;15.99;68.81;100503.16;5033248;28;20101;-80
2022/08/14 02:34:17;;;;;;;32.35;21.15;;;;;;;15.88;69.16;100477.97;5033163;28;20033;-81
2022/08/14 02:36:44;;;;;;;31.83;21.92;;;;;;;15.96;68.87;100494.44;5048654;28;20056;-81
2022/08/14 02:39:13;;;;;;;32.17;23.52;;;;;;;15.79;68.61;100470.25;5061183;28;20268;-82
2022/08/14 02:41:39;;;;;;;35.20;24.23;;;;;;;16.03;69.15;100496.94;5015471;28;20033;-82
2022/08/14 02:44:09;;;;;;;32.70;24.38;;;;;;;15.75;69.15;100445.00;5034577;28;20032;-83
2022/08/14 02:46:40;;;;;;;35.30;23.10;;;;;;;16.10;69.34;100493.28;5031652;28;20059;-82
2022/08/14 02:49:06;;;;;;;25.45;21.27;;;;;;;15.86;69.65;100443.03;5019748;28;20049;-81
2022/08/14 02:51:33;;;;;;;27.17;20.58;;;;;;;16.22;69.56;100494.78;5030002;28;20048;-85
2022/08/14 02:54:00;;;;;;;28.15;21.90;;;;;;;16.35;69.64;100500.66;5047633;28;20297;-83
2022/08/14 02:56:27;;;;;;;27.88;20.00;;;;;;;16.41;69.57;100498.75;5033489;28;20033;-83
2022/08/14 02:58:56;;;;;;;30.77;20.40;;;;;;;16.37;69.43;100480.47;5042191;28;20037;-84
2022/08/14 03:01:23;;;;;;;28.75;20.20;;;;;;;16.37;68.95;100480.47;5026988;28;20052;-83
2022/08/14 03:03:50;;;;;;;27.55;19.75;;;;;;;16.16;68.91;100424.03;5033646;28;20048;-85
2022/08/14 03:06:24;;;;;;;31.83;20.17;;;;;;;16.72;68.90;100499.81;5047471;28;20036;-83
2022/08/14 03:08:53;;;;;;;26.35;19.85;;;;;;;16.68;68.53;100483.25;5023303;28;20093;-80
2022/08/14 03:11:20;;;;;;;27.00;20.85;;;;;;;16.66;68.76;100457.94;5035223;28;20355;-84
2022/08/14 03:13:52;;;;;;;26.65;20.40;;;;;;;17.04;68.50;100514.00;5042760;28;20099;-84
2022/08/14 03:16:19;;;;;;;;;;;;;;;17.15;68.48;100504.06;5055325;28;20043;-80
2022/08/14 03:18:47;;;;;;;33.10;21.35;;;;;;;17.13;68.31;100492.72;5041520;28;19920;-84
2022/08/14 03:21:17;;;;;;;30.80;20.95;;;;;;;16.99;68.17;100450.16;5045035;28;20063;-82
2022/08/14 03:23:46;;;;;;;32.05;20.95;;;;;;;17.32;67.54;100481.75;5050609;28;20079;-81
2022/08/14 03:26:18;;;;;;;30.02;21.02;;;;;;;17.29;67.30;100456.38;5020103;28;20070;-83
2022/08/14 03:28:48;;;;;;;33.65;21.73;;;;;;;17.50;67.56;100474.28;5039298;28;20071;-84
2022/08/14 03:31:14;;;;;;;33.30;21.42;;;;;;;17.65;66.99;100487.00;5034967;28;20036;-82
2022/08/14 03:33:42;;;;;;;30.63;22.05;;;;;;;17.95;66.99;100509.88;5020760;28;20094;-82
2022/08/14 03:36:13;;;;;;;36.25;21.98;;;;;;;17.71;66.75;100447.38;5032633;28;20055;-82
2022/08/14 03:38:42;;;;;;;28.88;22.00;;;;;;;18.18;66.60;100493.47;5051871;28;20072;-80
2022/08/14 03:41:13;;;;;;;34.97;22.30;;;;;;;18.06;66.24;100442.03;5035253;28;20123;-85
2022/08/14 03:43:40;;;;;;;28.95;21.58;;;;;;;18.36;66.12;100473.59;5035354;28;20139;-83
2022/08/14 03:46:07;;;;;;;36.30;22.58;;;;;;;18.71;65.77;100497.13;5050226;28;20123;-85
2022/08/14 03:48:33;;;;;;;33.75;22.50;;;;;;;18.58;65.64;100450.09;5035332;28;20059;-83
2022/08/14 03:50:59;;;;;;;32.72;22.25;;;;;;;19.06;65.42;100489.88;5052705;28;20051;-84
2022/08/14 03:53:26;;;;;;;37.45;23.35;;;;;;;18.87;65.01;100435.06;5002162;28;20041;-84
2022/08/14 03:55:55;;;;;;;30.02;22.95;;;;;;;19.32;64.79;100473.16;5050325;28;20388;-84
2022/08/14 03:58:24;;;;;;;31.00;22.33;;;;;;;19.55;64.62;100480.25;5052257;28;20037;-87
2022/08/14 04:00:51;;;;;;;33.53;24.38;;;;;;;19.57;63.84;100449.41;5017723;28;20049;-84
2022/08/14 04:03:23;;;;;;;32.30;24.27;;;;;;;19.75;63.71;100444.34;5053659;28;20045;-83
2022/08/14 04:05:49;;;;;;;31.25;24.50;;;;;;;20.29;63.12;100491.72;4997614;28;20038;-84
2022/08/14 04:08:17;;;;;;;31.85;23.67;;;;;;;20.39;62.94;100471.94;5052035;28;20053;-82
2022/08/14 04:10:45;;;;;;;30.90;23.55;;;;;;;20.68;62.50;100492.84;5035236;28;20043;-82
2022/08/14 04:13:17;;;;;;;31.52;22.90;;;;;;;20.73;61.74;100465.28;5049779;28;20408;-81
2022/08/14 04:15:44;;;;;;;25.15;20.83;;;;;;;20.55;61.16;100424.59;5019824;28;20036;-83
2022/08/14 04:18:11;;;;;;;29.98;21.23;;;;;;;21.00;61.06;100466.88;5049797;28;20032;-82
2022/08/14 04:20:39;;;;;;;24.92;19.17;;;;;;;21.24;60.58;100470.28;5073317;28;20025;-80
2022/08/14 04:23:06;;;;;;;24.63;20.52;;;;;;;21.51;60.09;100470.03;5055339;28;20025;-79
2022/08/14 04:25:35;;;;;;;26.17;18.90;;;;;;;21.66;59.35;100457.91;5050685;28;20041;-82
2022/08/14 04:28:10;;;;;;;22.77;18.60;;;;;;;22.02;58.90;100473.06;5067982;28;20045;-81
2022/08/14 04:30:40;;;;;;;25.60;19.45;;;;;;;21.96;58.16;100431.81;5018102;28;20040;-81
2022/08/14 04:33:07;;;;;;;25.02;17.70;;;;;;;22.43;57.46;100482.69;5066914;28;20048;-80
2022/08/14 04:35:34;;;;;;;24.02;17.63;;;;;;;22.56;57.30;100483.81;5050610;28;20040;-81
2022/08/14 04:43:41;;;;;;;24.23;21.60;;;;;;;23.05;55.39;100492.09;5032556;28;20045;-82
2022/08/14 04:46:19;;;;;;;21.10;18.77;;;;;;;23.19;55.35;100492.22;5059907;28;20026;-82
2022/08/14 04:48:45;;;;;;;22.35;17.17;;;;;;;23.16;54.17;100487.94;5073014;28;20119;-82
2022/08/14 04:51:14;;;;;;;22.90;16.85;;;;;;;23.11;54.42;100495.28;5053992;28;20036;-83
2022/08/14 04:53:43;;;;;;;19.92;16.58;;;;;;;23.30;53.92;100478.44;5075328;28;20055;-82
2022/08/14 04:56:15;;;;;;;18.02;16.23;;;;;;;23.34;54.05;100479.16;5075763;28;20060;-80
2022/08/14 04:58:42;;;;;;;21.73;14.73;;;;;;;23.46;53.46;100471.44;5054854;28;20048;-80
2022/08/14 05:01:10;;;;;;;22.25;13.85;;;;;;;23.80;53.21;100479.41;5052992;28;20045;-81
2022/08/14 05:03:37;;;;;;;22.20;13.95;;;;;;;23.95;52.56;100480.34;5038281;28;20095;-79
2022/08/14 05:06:06;;;;;;;20.40;14.10;;;;;;;24.13;52.08;100462.56;5068018;28;20047;-82
2022/08/14 05:08:32;;;;;;;19.83;14.60;;;;;;;24.44;51.00;100482.16;5059454;28;20114;-81
2022/08/14 05:11:01;;;;;;;19.48;15.02;;;;;;;24.64;50.62;100488.13;5056387;28;20123;-82
2022/08/14 05:13:31;;;;;;;22.42;15.20;;;;;;;24.73;50.49;100476.97;5021668;28;20044;-83
2022/08/14 05:15:58;;;;;;;23.42;15.15;;;;;;;24.93;50.40;100477.66;5038082;28;20119;-80
2022/08/14 05:18:45;;;;;;;23.35;15.38;;;;;;;25.11;49.68;100473.03;5024765;28;20082;-81
2022/08/14 05:21:11;;;;;;;15.07;13.43;;;;;;;25.41;49.36;100474.81;5067503;28;20185;-79
2022/08/14 05:23:39;;;;;;;19.98;15.18;;;;;;;25.51;48.91;100469.81;5022391;28;20075;-83
2022/08/14 05:26:11;;;;;;;17.23;14.25;;;;;;;25.79;48.57;100478.78;5005479;28;20430;-82
2022/08/14 05:28:44;;;;;;;16.92;14.38;;;;;;;26.35;48.22;100468.16;5053920;28;20052;-80
2022/08/14 05:31:16;;;;;;;24.05;15.35;;;;;;;27.25;46.71;100456.03;5019992;28;20090;-83
2022/08/14 05:33:42;;;;;;;20.10;15.35;;;;;;;29.04;45.58;100463.75;5037192;28;20037;-81
2022/08/14 05:36:10;;;;;;;19.25;15.77;;;;;;;31.05;42.29;100451.34;5036969;28;20029;-82
2022/08/14 05:38:46;;;;;;;18.92;14.52;;;;;;;32.70;39.52;100432.41;5022463;28;20052;-80
2022/08/14 05:41:18;;;;;;;17.15;14.63;;;;;;;34.32;36.87;100444.94;5036764;28;20063;-82
2022/08/14 05:43:49;;;;;;;17.60;14.60;;;;;;;35.63;34.52;100433.47;5040036;28;20624;-82
2022/08/14 05:46:22;;;;;;;19.95;15.82;;;;;;;36.70;30.76;100435.59;5055728;28;20037;-81
2022/08/14 05:48:54;;;;;;;17.30;13.93;;;;;;;37.43;30.15;100445.72;5037161;28;20052;-81
2022/08/14 05:51:22;;;;;;;16.27;14.50;;;;;;;38.07;29.20;100444.75;5003634;28;20051;-81
2022/08/14 05:53:49;;;;;;;21.60;16.77;;;;;;;38.88;28.10;100433.50;5037507;28;20037;-80
2022/08/14 05:56:15;;;;;;;16.83;14.35;;;;;;;39.67;26.96;100421.25;5072787;28;20056;-83
2022/08/14 05:58:41;;;;;;;18.58;15.52;;;;;;;40.55;25.21;100417.59;5045076;28;20049;-81
2022/08/14 06:01:10;;;;;;;17.00;14.98;;;;;;;41.43;24.12;100424.53;5035165;28;20512;-81
2022/08/14 06:03:37;;;;;;;16.25;13.63;;;;;;;41.77;24.08;100424.69;5053855;28;20132;-82
2022/08/14 06:06:09;;;;;;;;;;;;;;;42.53;23.29;100441.94;5053861;28;20033;-83
2022/08/14 06:08:37;;;;;;;18.20;12.77;;;;;;;43.18;22.71;100428.41;5036700;28;19920;-82
2022/08/14 06:11:06;;;;;;;21.27;12.25;;;;;;;41.77;21.80;100425.53;5016824;28;20587;-84
2022/08/14 06:14:05;;;;;;;12.48;10.48;;;;;;;40.90;22.00;100409.50;5053639;28;20389;-83
2022/08/14 06:16:32;;;;;;;11.05;9.85;;;;;;;40.71;22.56;100408.34;5019795;28;20045;-81
2022/08/14 06:18:58;;;;;;;11.40;10.25;;;;;;;41.03;21.92;100430.56;5084417;28;20037;-81
2022/08/14 06:21:25;;;;;;;11.30;9.63;;;;;;;40.90;22.08;100430.50;5084325;28;20040;-81
2022/08/14 06:23:51;;;;;;;11.48;10.20;;;;;;;41.59;21.26;100428.00;5060728;28;20051;-80
2022/08/14 06:26:18;;;;;;;13.00;10.57;;;;;;;42.98;20.22;100424.88;5038339;28;20044;-83
2022/08/14 06:28:44;;;;;;;15.65;11.25;;;;;;;43.71;19.24;100423.84;5063333;28;20051;-83
2022/08/14 06:31:10;;;;;;;13.75;9.68;;;;;;;44.19;19.03;100419.78;5063543;28;20043;-84
2022/08/14 06:33:36;;;;;;;12.43;9.73;;;;;;;44.98;18.05;100433.06;5061580;28;20052;-84
2022/08/14 06:36:02;;;;;;;11.32;10.13;;;;;;;45.49;17.42;100430.22;5049073;28;20070;-83
2022/08/14 06:38:29;;;;;;;17.20;9.73;;;;;;;46.47;16.93;100412.78;5045671;28;20777;-85
2022/08/14 06:40:55;;;;;;;17.13;10.10;;;;;;;46.91;16.62;100427.06;5070933;28;20381;-84
2022/08/14 06:43:22;;;;;;;12.27;9.13;;;;;;;46.92;15.75;100405.84;5043910;28;20041;-81
2022/08/14 06:45:50;;;;;;;12.10;8.45;;;;;;;47.30;15.57;100426.53;5073426;28;20063;-82
2022/08/14 06:48:22;;;;;;;13.05;8.98;;;;;;;47.54;15.30;100407.19;5041451;28;20057;-84
2022/08/14 06:50:49;;;;;;;16.60;8.57;;;;;;;48.37;15.05;100428.84;5000646;28;20084;-83
2022/08/14 06:53:18;;;;;;;13.60;7.38;;;;;;;48.65;14.64;100429.81;5052577;28;20044;-83
2022/08/14 06:55:46;;;;;;;10.07;6.10;;;;;;;49.14;14.04;100403.50;5032337;28;20091;-80
2022/08/14 06:58:14;;;;;;;16.05;7.68;;;;;;;49.86;13.34;100429.22;5011472;28;20067;-78
2022/08/14 07:05:44;;;;;;;9.07;7.18;;;;;;;49.74;13.44;100426.59;5025078;28;20041;-81
2022/08/14 07:06:13;;;;;;;9.77;6.60;;;;;;;50.67;12.56;100425.72;5041045;28;20127;-82
2022/08/14 07:08:40;;;;;;;18.20;6.10;;;;;;;50.92;11.78;100431.44;5011733;28;20036;-81
2022/08/14 07:11:06;;;;;;;12.60;6.10;;;;;;;50.74;11.29;100418.03;5049800;28;20119;-82
2022/08/14 07:13:33;;;;;;;14.52;6.93;;;;;;;50.27;11.74;100425.19;5034291;28;20582;-82
2022/08/14 07:15:59;;;;;;;12.77;6.88;;;;;;;50.30;12.06;100414.41;5033230;28;20138;-78
2022/08/14 07:18:27;;;;;;;8.70;7.07;;;;;;;51.23;11.40;100416.94;5047864;28;20083;-80
2022/08/14 07:20:55;;;;;;;9.32;6.40;;;;;;;52.17;10.94;100420.75;5011845;28;20037;-80
2022/08/14 07:23:25;;;;;;;7.30;6.07;;;;;;;51.98;11.34;100421.28;5028280;28;20041;-78
2022/08/14 07:25:54;;;;;;;13.18;7.68;;;;;;;51.72;10.38;100414.88;5051978;28;20043;-79
2022/08/14 07:28:22;;;;;;;15.10;7.32;;;;;;;52.46;10.10;100415.47;5043699;28;20107;-81
2022/08/14 07:30:50;;;;;;;9.18;6.22;;;;;;;52.79;10.34;100409.59;5006120;28;20148;-81
2022/08/14 07:33:19;;;;;;;8.40;6.50;;;;;;;52.57;10.12;100419.88;5052889;28;20044;-79
2022/08/14 07:35:45;;;;;;;6.65;5.90;;;;;;;52.33;9.68;100403.00;5027931;28;20128;-80
2022/08/14 07:38:19;;;;;;;15.25;6.75;;;;;;;52.52;10.25;100407.97;5035907;28;20036;-80
2022/08/14 07:40:46;;;;;;;10.30;6.55;;;;;;;52.33;10.58;100405.78;5001237;28;20083;-80
2022/08/14 07:43:15;;;;;;;6.70;4.40;;;;;;;51.92;9.85;100416.88;5028808;28;20130;-79
2022/08/14 07:45:41;;;;;;;10.43;4.22;;;;;;;52.84;9.46;100417.91;5047470;28;20044;-80
2022/08/14 07:51:51;;;;;;;4.70;4.30;;;;;;;52.68;9.32;100392.94;5001495;28;20045;-81
2022/08/14 07:54:18;;;;;;;5.20;4.70;;;;;;;52.82;8.85;100378.47;5048906;28;20033;-81
2022/08/14 07:56:46;;;;;;;5.78;4.90;;;;;;;53.12;8.65;100410.03;5018720;28;20033;-80
2022/08/14 07:59:15;;;;;;;5.30;4.00;;;;;;;53.67;8.33;100384.19;5020189;23;20058;-81
2022/08/14 08:01:42;;;;;;;7.18;3.80;;;;;;;52.11;9.81;100384.69;4993000;28;20037;-81
2022/08/14 08:04:09;;;;;;;4.85;4.15;;;;;;;52.15;8.62;100407.13;4994610;28;20077;-80
2022/08/14 08:06:37;;;;;;;5.38;4.70;;;;;;;52.68;8.99;100387.41;4992814;28;20119;-82
2022/08/14 08:09:05;;;;;;;4.80;3.80;;;;;;;53.50;7.88;100371.50;4977732;28;20053;-81
2022/08/14 08:11:33;;;;;;;6.70;4.40;;;;;;;54.12;8.74;100403.56;4965862;28;20041;-81
2022/08/14 08:14:01;;;;;;;5.10;4.13;;;;;;;54.38;7.73;100401.41;5012538;28;20041;-80
2022/08/14 08:16:28;;;;;;;4.60;4.20;;;;;;;54.32;8.26;100397.81;5011696;28;20062;-79
2022/08/14 08:18:55;;;;;;;5.60;3.90;;;;;;;54.63;7.61;100386.41;4979548;28;20073;-81
2022/08/14 08:21:21;;;;;;;4.30;3.80;;;;;;;54.32;7.51;100413.72;5005574;28;20037;-79
2022/08/14 08:23:47;;;;;;;5.00;4.00;;;;;;;55.24;6.72;100385.91;5012477;28;20068;-79
2022/08/14 08:26:14;;;;;;;4.00;3.60;;;;;;;56.41;6.66;100384.31;4974691;28;20034;-81
2022/08/14 08:28:40;;;;;;;4.88;3.67;;;;;;;57.26;5.71;100399.09;4996606;28;20044;-80
2022/08/14 08:31:07;;;;;;;5.70;4.00;;;;;;;57.34;6.70;100415.09;4999374;28;20038;-79
2022/08/14 08:33:38;;;;;;;4.72;3.38;;;;;;;57.25;6.10;100400.22;5005803;28;20046;-84
2022/08/14 08:36:10;;;;;;;4.50;3.97;;;;;;;54.64;6.78;100381.66;5022568;28;20046;-82
2022/08/14 08:38:36;;;;;;;4.38;3.50;;;;;;;53.92;7.02;100383.13;5004624;28;20111;-82
2022/08/14 08:41:03;;;;;;;4.32;3.78;;;;;;;54.05;7.18;100362.19;5003266;28;20045;-82
2022/08/14 08:43:39;;;;;;;5.18;3.70;;;;;;;54.11;7.02;100391.63;4989769;28;20493;-81
2022/08/14 08:46:20;;;;;;;3.70;3.40;;;;;;;54.60;6.74;100397.31;4988235;28;20041;-79
2022/08/14 08:48:52;;;;;;;4.50;3.72;;;;;;;55.29;6.75;100388.63;5006092;28;20041;-80
2022/08/14 08:51:30;;;;;;;3.92;3.42;;;;;;;56.24;6.44;100393.28;5018263;28;20568;-82
2022/08/14 08:54:06;;;;;;;3.70;3.50;;;;;;;56.34;6.70;100377.50;4991979;28;20057;-84
2022/08/14 08:56:45;;;;;;;3.45;3.25;;;;;;;55.16;6.62;100381.00;4969835;28;20121;-80
2022/08/14 08:59:23;;;;;;;4.07;3.70;;;;;;;53.30;7.34;100378.00;5020346;28;20058;-80
2022/08/14 09:01:57;;;;;;;4.70;3.90;;;;;;;51.55;8.44;100376.28;5027640;28;20057;-80
2022/08/14 09:04:38;;;;;;;4.05;3.72;;;;;;;50.08;9.09;100367.47;5014507;28;20049;-80
2022/08/14 09:07:12;;;;;;;7.95;3.60;;;;;;;49.92;9.48;100373.97;5000122;28;20044;-80
2022/08/14 09:09:51;;;;;;;6.03;3.53;;;;;;;49.32;9.80;100360.91;5002195;28;20409;-83
2022/08/14 09:12:18;;;;;;;;;;;;;;;48.72;10.35;100373.66;5014934;28;20050;-81
2022/08/14 09:14:50;;;;;;;4.22;3.38;;;;;;;49.12;10.29;100375.31;5010283;28;20005;-80
2022/08/14 09:17:16;;;;;;;4.40;3.90;;;;;;;49.50;10.01;100347.88;5009445;28;20512;-81
2022/08/14 09:19:43;;;;;;;5.03;3.70;;;;;;;48.72;10.63;100365.38;4976457;28;20132;-80
2022/08/14 09:22:12;;;;;;;4.72;3.50;;;;;;;47.62;10.70;100365.47;5009543;28;20041;-81
2022/08/14 09:24:38;;;;;;;6.72;3.40;;;;;;;46.70;11.48;100323.91;5013783;28;20041;-81
2022/08/14 09:27:05;;;;;;;3.80;3.20;;;;;;;46.13;11.83;100333.59;4986322;28;20053;-85
2022/08/14 09:29:40;;;;;;;5.65;3.90;;;;;;;44.89;12.24;100294.53;4966644;28;20072;-83
2022/08/14 09:32:19;;;;;;;4.00;3.50;;;;;;;44.39;12.59;100340.13;5016211;28;20095;-80
2022/08/14 09:35:02;;;;;;;5.63;4.05;;;;;;;43.39;14.04;100344.34;5018079;28;20509;-83
2022/08/14 09:38:18;;;;;;;6.35;3.95;;;;;;;43.98;13.38;100360.69;4971017;28;20497;-79
2022/08/14 09:41:01;;;;;;;4.05;3.28;;;;;;;44.60;13.00;100354.53;4941285;28;20035;-81
2022/08/14 09:43:54;;;;;;;6.68;3.70;;;;;;;45.07;12.57;100359.50;5002907;28;20038;-78
2022/08/14 09:46:20;;;;;;;5.93;3.30;;;;;;;45.76;12.36;100357.63;5005340;28;20025;-81
2022/08/14 09:48:58;;;;;;;4.53;3.60;;;;;;;45.83;12.29;100339.94;5014273;28;20046;-79
2022/08/14 09:51:27;;;;;;;5.35;3.78;;;;;;;46.20;12.03;100357.38;5008345;28;20072;-81
2022/08/14 09:54:12;;;;;;;4.05;3.65;;;;;;;46.83;11.65;100353.09;5000579;28;20030;-80
2022/08/14 09:56:46;;;;;;;3.50;3.20;;;;;;;46.26;12.07;100356.41;5032955;28;20046;-80
2022/08/14 09:59:15;;;;;;;5.35;4.20;;;;;;;46.84;12.03;100342.94;5032139;28;20050;-84
2022/08/14 10:01:43;;;;;;;8.48;4.53;;;;;;;45.63;11.78;100342.97;5016048;28;20041;-82
2022/08/14 10:04:27;;;;;;;6.18;3.80;;;;;;;44.02;13.35;100331.78;5019832;23;20065;-82
2022/08/14 10:06:54;;;;;;;7.93;4.18;;;;;;;44.08;13.63;100349.25;4990171;28;20042;-82
2022/08/14 10:09:20;;;;;;;8.10;4.30;;;;;;;44.55;13.68;100359.00;4987628;28;20046;-83
2022/08/14 10:11:56;;;;;;;4.88;4.45;;;;;;;44.36;13.19;100318.66;5006222;28;20061;-83
2022/08/14 10:14:24;;;;;;;5.10;4.10;;;;;;;43.78;13.49;100355.31;4972871;28;20449;-83
2022/08/14 10:16:53;;;;;;;6.57;4.78;;;;;;;42.02;14.37;100315.72;4972962;28;20494;-82
2022/08/14 10:19:24;;;;;;;4.35;4.05;;;;;;;41.58;15.74;100311.63;4986967;28;20151;-81
2022/08/14 10:22:06;;;;;;;4.80;4.40;;;;;;;41.83;15.55;100326.41;4989363;28;20491;-83
2022/08/14 10:24:46;;;;;;;4.30;4.00;;;;;;;41.90;15.48;100331.03;4995601;28;20023;-81
2022/08/14 10:27:15;;;;;;;;;;;;;;;42.14;15.64;100365.13;4978246;28;20053;-83
2022/08/14 10:29:47;;;;;;;4.47;4.05;;;;;;;42.03;15.10;100355.66;5003698;28;19921;-81
2022/08/14 10:32:14;;;;;;;4.50;4.03;;;;;;;41.44;15.65;100351.66;5016263;28;20066;-82
2022/08/14 10:34:41;;;;;;;5.72;4.25;;;;;;;41.31;15.44;100350.59;4999529;28;20039;-79
2022/08/14 10:37:15;;;;;;;4.80;4.30;;;;;;;41.09;15.78;100364.34;4996710;28;20110;-78
2022/08/14 10:39:44;;;;;;;4.38;3.88;;;;;;;40.40;16.38;100332.34;4992562;28;20042;-79
2022/08/14 10:42:13;;;;;;;4.88;4.47;;;;;;;39.90;16.27;100333.97;5013201;28;20039;-83
2022/08/14 10:44:44;;;;;;;4.40;4.00;;;;;;;39.15;16.56;100322.41;4997673;28;20045;-79
2022/08/14 10:47:12;;;;;;;4.25;3.85;;;;;;;38.17;17.51;100296.00;5001238;28;20043;-80
2022/08/14 10:49:49;;;;;;;5.35;3.63;;;;;;;38.21;17.62;100318.22;5016013;28;20034;-81
2022/08/14 10:52:23;;;;;;;4.85;4.22;;;;;;;38.46;17.82;100354.19;5000190;28;20052;-81
2022/08/14 10:54:50;;;;;;;4.20;3.80;;;;;;;38.30;18.06;100357.84;4995190;28;20073;-84
2022/08/14 10:57:25;;;;;;;4.40;4.00;;;;;;;38.01;18.19;100354.00;5002110;28;20053;-82
2022/08/14 10:59:55;;;;;;;4.45;4.00;;;;;;;37.80;18.41;100332.91;5001161;28;20048;-79
2022/08/14 11:02:30;;;;;;;4.82;4.40;;;;;;;37.62;18.26;100319.63;5003956;28;20104;-80
2022/08/14 11:05:14;;;;;;;5.05;4.40;;;;;;;37.37;18.78;100342.25;4991657;28;20069;-79
2022/08/14 11:07:53;;;;;;;5.85;4.43;;;;;;;37.04;18.69;100323.44;4976040;28;20046;-77
2022/08/14 11:10:21;;;;;;;6.10;4.13;;;;;;;36.63;19.38;100313.50;4989418;28;20039;-80
2022/08/14 11:12:50;;;;;;;4.43;4.03;;;;;;;36.55;19.63;100342.47;4993718;28;20052;-78
2022/08/14 11:15:22;;;;;;;5.97;4.30;;;;;;;36.32;19.67;100324.16;4970643;28;20522;-79
2022/08/14 11:17:50;;;;;;;4.57;4.15;;;;;;;36.03;19.93;100320.09;4976442;28;20046;-80
2022/08/14 11:20:22;;;;;;;4.88;4.13;;;;;;;36.08;19.71;100330.44;4997345;28;20156;-78
2022/08/14 11:22:57;;;;;;;5.15;3.92;;;;;;;36.09;20.02;100341.09;4959598;28;21490;-83
2022/08/14 11:25:30;;;;;;;6.45;4.00;;;;;;;35.91;19.93;100341.19;4955448;28;20049;-80
2022/08/14 11:27:58;;;;;;;5.95;3.65;;;;;;;34.87;20.66;100340.41;4970520;28;20107;-80
2022/08/14 11:30:29;;;;;;;6.18;4.10;;;;;;;33.69;21.88;100344.91;4972978;28;20045;-81
2022/08/14 11:32:57;;;;;;;4.63;3.70;;;;;;;33.22;23.15;100363.84;4973983;28;20066;-82
2022/08/14 11:35:25;;;;;;;6.70;4.05;;;;;;;32.60;23.40;100354.31;4971931;28;20043;-81
2022/08/14 11:37:58;;;;;;;5.38;3.80;;;;;;;32.03;24.48;100354.16;4973303;28;20070;-80
2022/08/14 11:40:30;;;;;;;7.38;4.53;;;;;;;31.75;25.11;100352.13;4975072;28;20027;-85
2022/08/14 11:42:56;;;;;;;3.92;3.63;;;;;;;31.81;25.02;100359.66;4956187;28;20043;-84
2022/08/14 11:45:25;;;;;;;7.97;4.13;;;;;;;31.67;25.39;100362.69;4989402;28;20050;-81